Terminal Aerodrome Forecast
Issued by NWS Shreveport, LA

Home | Current Version | Previous Version | Text Only | Print | Product List | Glossary On
Versions: 1 2 3 4 5 6 7 8 9 10 11 12 13 14 15 16 17 18 19 20
000
FTUS44 KSHV 241900 AAA
TAFTXK
TAF AMD
KTXK 241908Z 2419/2518 04006KT P6SM BKN015 OVC030
     FM242300 07006KT P6SM BKN025 BKN250
     FM250900 11002KT 2SM BR SCT030 BKN250
     FM251500 14004KT P6SM SKC=

USA.gov is the U.S. government's official web portal to all federal, state and local government web resources and services.